createdAt,value
2023-10-25T00:01:57.124Z,7.30
2023-10-25T00:04:24.687Z,7.32
2023-10-25T00:06:52.213Z,6.43
2023-10-25T00:09:19.634Z,7.25
2023-10-25T00:11:47.020Z,6.72
2023-10-25T00:14:14.690Z,6.35
2023-10-25T00:16:42.060Z,6.97
2023-10-25T00:19:09.641Z,7.03
2023-10-25T00:21:37.024Z,6.68
2023-10-25T00:24:04.698Z,5.78
2023-10-25T00:26:32.015Z,6.05
2023-10-25T00:28:59.804Z,5.55
2023-10-25T00:31:27.421Z,5.32
2023-10-25T00:33:55.790Z,5.55
2023-10-25T00:36:23.260Z,5.13
2023-10-25T00:38:50.706Z,4.75
2023-10-25T00:41:20.262Z,3.95
2023-10-25T00:43:47.786Z,4.47
2023-10-25T00:46:26.059Z,4.30
2023-10-25T00:48:58.781Z,4.32
2023-10-25T00:51:28.056Z,3.78
2023-10-25T00:53:57.511Z,3.50
2023-10-25T00:56:26.644Z,3.53
2023-10-25T00:58:56.528Z,4.30
2023-10-25T01:01:25.307Z,4.05
2023-10-25T01:03:54.058Z,4.30
2023-10-25T01:06:21.529Z,4.75
2023-10-25T01:08:49.412Z,4.38
2023-10-25T01:11:17.115Z,4.53
2023-10-25T01:13:44.653Z,3.60
2023-10-25T01:16:12.102Z,5.30
2023-10-25T01:18:39.568Z,4.63
2023-10-25T01:21:07.019Z,4.00
2023-10-25T01:23:34.414Z,5.28
2023-10-25T01:26:01.839Z,5.80
2023-10-25T01:28:29.281Z,5.03
2023-10-25T01:30:56.672Z,5.07
2023-10-25T01:33:24.212Z,5.30
2023-10-25T01:35:52.731Z,4.97
2023-10-25T01:38:20.280Z,4.60
2023-10-25T01:40:47.612Z,4.97
2023-10-25T01:43:15.782Z,4.45
2023-10-25T01:45:43.266Z,4.97
2023-10-25T01:48:10.686Z,5.40
2023-10-25T01:50:39.039Z,5.35
2023-10-25T01:53:07.248Z,4.70
2023-10-25T01:55:34.712Z,5.85
2023-10-25T01:58:02.402Z,5.30
2023-10-25T02:00:29.742Z,5.38
2023-10-25T02:02:57.129Z,5.22
2023-10-25T02:05:24.580Z,4.75
2023-10-25T02:07:51.933Z,4.57
2023-10-25T02:10:21.493Z,4.80
2023-10-25T02:12:48.938Z,5.28
2023-10-25T02:15:16.760Z,5.45
2023-10-25T02:17:45.089Z,5.15
2023-10-25T02:20:12.821Z,5.40
2023-10-25T02:22:40.156Z,6.32
2023-10-25T02:25:08.289Z,5.70
2023-10-25T02:27:35.686Z,6.18
2023-10-25T02:30:03.818Z,5.80
2023-10-25T02:32:31.249Z,6.05
2023-10-25T02:34:58.555Z,5.93
2023-10-25T02:37:27.527Z,5.55
2023-10-25T02:39:57.535Z,5.88
2023-10-25T02:42:24.878Z,4.85
2023-10-25T02:44:52.310Z,5.35
2023-10-25T02:47:19.739Z,4.78
2023-10-25T02:49:47.647Z,5.78
2023-10-25T02:52:15.003Z,5.63
2023-10-25T02:54:42.411Z,5.60
2023-10-25T02:57:09.747Z,4.65
2023-10-25T02:59:37.162Z,4.63
2023-10-25T03:02:05.291Z,5.30
2023-10-25T03:04:32.700Z,4.45
2023-10-25T03:07:00.219Z,5.13
2023-10-25T03:09:27.733Z,4.28
2023-10-25T03:11:55.213Z,4.68
2023-10-25T03:14:22.532Z,4.28
2023-10-25T03:16:50.688Z,4.65
2023-10-25T03:19:18.213Z,3.83
2023-10-25T03:21:45.676Z,4.30
2023-10-25T03:24:13.082Z,4.18
2023-10-25T03:26:40.548Z,3.40
2023-10-25T03:29:07.847Z,3.67
2023-10-25T03:31:39.540Z,3.28
2023-10-25T03:34:07.181Z,4.43
2023-10-25T03:36:34.583Z,4.63
2023-10-25T03:39:02.091Z,4.53
2023-10-25T03:41:29.475Z,4.18
2023-10-25T03:43:56.849Z,3.90
2023-10-25T03:46:24.330Z,4.55
2023-10-25T03:48:51.854Z,4.88
2023-10-25T03:51:19.330Z,4.50
2023-10-25T03:53:46.677Z,4.65
2023-10-25T03:56:14.090Z,5.68
2023-10-25T03:58:41.958Z,3.95
2023-10-25T04:01:12.101Z,4.75
2023-10-25T04:03:40.307Z,3.47
2023-10-25T04:06:09.408Z,3.75
2023-10-25T04:08:37.390Z,3.95
2023-10-25T04:11:05.041Z,3.83
2023-10-25T04:13:35.528Z,5.53
2023-10-25T04:16:05.414Z,5.32
2023-10-25T04:18:37.728Z,6.45
2023-10-25T04:21:10.426Z,8.48
2023-10-25T04:23:37.745Z,8.70
2023-10-25T04:26:05.895Z,10.40
2023-10-25T04:28:33.798Z,10.50
2023-10-25T04:31:01.929Z,10.63
2023-10-25T04:33:29.919Z,10.93
2023-10-25T04:35:57.898Z,11.35
2023-10-25T04:38:25.687Z,11.10
2023-10-25T04:40:53.508Z,11.15
2023-10-25T04:43:20.851Z,10.32
2023-10-25T04:45:48.682Z,10.00
2023-10-25T04:48:16.412Z,11.48
2023-10-25T04:50:43.774Z,11.27
2023-10-25T04:53:11.639Z,12.38
2023-10-25T04:55:39.315Z,11.38
2023-10-25T04:58:06.696Z,12.25
2023-10-25T05:00:34.298Z,11.95
2023-10-25T05:03:02.218Z,12.45
2023-10-25T05:05:29.614Z,13.65
2023-10-25T05:07:57.360Z,14.55
2023-10-25T05:10:25.158Z,14.50
2023-10-25T05:12:53.306Z,15.65
2023-10-25T05:15:21.507Z,16.98
2023-10-25T05:17:49.444Z,16.92
2023-10-25T05:20:17.285Z,18.40
2023-10-25T05:22:52.664Z,18.15
2023-10-25T05:25:20.921Z,19.45
2023-10-25T05:27:48.838Z,19.38
2023-10-25T05:30:18.935Z,19.65
2023-10-25T05:32:48.447Z,19.67
2023-10-25T05:35:16.489Z,18.60
2023-10-25T05:37:44.179Z,19.42
2023-10-25T05:40:12.397Z,18.45
2023-10-25T05:42:49.265Z,18.75
2023-10-25T05:45:18.143Z,20.77
2023-10-25T05:47:45.944Z,19.55
2023-10-25T05:50:14.067Z,18.55
2023-10-25T05:52:46.544Z,17.98
2023-10-25T05:55:16.127Z,16.92
2023-10-25T05:57:44.346Z,16.70
2023-10-25T06:00:12.612Z,15.43
2023-10-25T06:02:43.923Z,15.40
2023-10-25T06:05:14.412Z,15.80
2023-10-25T06:07:42.492Z,14.93
2023-10-25T06:10:10.616Z,13.27
2023-10-25T06:12:38.619Z,14.82
2023-10-25T06:15:06.592Z,13.88
2023-10-25T06:17:34.774Z,13.52
2023-10-25T06:20:02.589Z,14.32
2023-10-25T06:22:30.107Z,11.93
2023-10-25T06:24:57.649Z,12.25
2023-10-25T06:27:25.067Z,12.77
2023-10-25T06:29:52.494Z,14.15
2023-10-25T06:32:19.827Z,16.27
2023-10-25T06:34:47.226Z,13.77
2023-10-25T06:37:14.990Z,13.95
2023-10-25T06:39:42.597Z,12.63
2023-10-25T06:42:11.472Z,12.35
2023-10-25T06:44:39.192Z,11.00
2023-10-25T06:47:10.193Z,10.65
2023-10-25T06:49:37.913Z,10.88
2023-10-25T06:52:05.937Z,11.38
2023-10-25T06:54:33.806Z,12.02
2023-10-25T06:57:01.551Z,9.57
2023-10-25T06:59:29.185Z,10.85
2023-10-25T07:02:14.855Z,10.98
2023-10-25T07:04:44.054Z,9.70
2023-10-25T07:07:12.688Z,11.52
2023-10-25T07:09:42.225Z,9.93
2023-10-25T07:12:09.527Z,10.60
2023-10-25T07:14:36.802Z,9.95
2023-10-25T07:17:04.320Z,9.35
2023-10-25T07:19:31.735Z,9.43
2023-10-25T07:21:59.126Z,11.95
2023-10-25T07:24:26.452Z,9.77
2023-10-25T07:26:55.209Z,10.20
2023-10-25T07:29:23.958Z,10.60
2023-10-25T07:31:51.472Z,12.30
2023-10-25T07:34:18.973Z,13.68
2023-10-25T07:36:46.382Z,11.18
2023-10-25T07:39:16.385Z,12.38
2023-10-25T07:41:43.762Z,12.57
2023-10-25T07:44:11.059Z,13.77
2023-10-25T07:46:39.101Z,14.00
2023-10-25T07:49:06.695Z,13.73
2023-10-25T07:51:34.054Z,12.80
2023-10-25T07:54:01.457Z,12.60
2023-10-25T07:58:59.568Z,11.93
2023-10-25T08:01:26.984Z,11.73
2023-10-25T08:03:54.811Z,10.75
2023-10-25T08:06:22.688Z,11.40
2023-10-25T08:08:50.534Z,11.15
2023-10-25T08:11:17.891Z,11.38
2023-10-25T08:13:45.428Z,10.93
2023-10-25T08:16:13.084Z,10.18
2023-10-25T08:18:40.614Z,9.93
2023-10-25T08:21:13.766Z,10.85
2023-10-25T08:23:41.391Z,8.88
2023-10-25T08:26:08.784Z,9.70
2023-10-25T08:28:36.047Z,9.98
2023-10-25T08:31:13.215Z,9.98
2023-10-25T08:33:41.169Z,10.80
2023-10-25T08:36:08.923Z,10.10
2023-10-25T08:38:36.872Z,9.75
2023-10-25T08:41:04.920Z,9.98
2023-10-25T08:43:34.503Z,9.48
2023-10-25T08:46:06.266Z,9.60
2023-10-25T08:48:34.220Z,9.07
2023-10-25T08:51:02.541Z,9.98
2023-10-25T08:53:30.593Z,10.00
2023-10-25T08:55:59.476Z,9.93
2023-10-25T08:58:26.948Z,10.43
2023-10-25T09:00:58.128Z,10.43
2023-10-25T09:03:31.811Z,10.82
2023-10-25T09:06:05.509Z,8.52
2023-10-25T09:08:33.965Z,9.93
2023-10-25T09:11:06.272Z,9.38
2023-10-25T09:13:35.605Z,9.25
2023-10-25T09:16:11.585Z,9.65
2023-10-25T09:18:40.698Z,9.75
2023-10-25T09:21:12.990Z,9.38
2023-10-25T09:23:41.662Z,9.10
2023-10-25T09:26:17.252Z,10.30
2023-10-25T09:28:48.146Z,8.88
2023-10-25T09:31:29.610Z,9.32
2023-10-25T09:34:01.907Z,10.02
2023-10-25T09:36:29.439Z,9.70
2023-10-25T09:38:57.761Z,9.88
2023-10-25T09:41:28.047Z,10.80
2023-10-25T09:44:00.527Z,12.55
2023-10-25T09:46:31.561Z,10.55
2023-10-25T09:49:10.282Z,11.02
2023-10-25T09:52:09.481Z,10.85
2023-10-25T09:54:49.624Z,10.90
2023-10-25T09:57:19.259Z,11.02
2023-10-25T09:59:47.498Z,10.05
2023-10-25T10:02:47.186Z,10.30
2023-10-25T10:05:36.994Z,11.85
2023-10-25T10:08:22.293Z,11.50
2023-10-25T10:11:09.796Z,10.85
2023-10-25T10:13:37.324Z,10.50
2023-10-25T10:16:10.632Z,10.38
2023-10-25T10:18:49.036Z,9.93
2023-10-25T10:21:16.772Z,9.95
2023-10-25T10:23:51.927Z,9.40
2023-10-25T10:26:45.591Z,10.10
2023-10-25T10:29:38.085Z,9.73
2023-10-25T10:32:08.171Z,10.68
2023-10-25T10:34:39.712Z,10.93
2023-10-25T10:37:25.264Z,10.90
2023-10-25T10:40:02.825Z,10.80
2023-10-25T10:42:32.050Z,11.57
2023-10-25T10:45:05.578Z,11.63
2023-10-25T10:47:48.975Z,9.52
2023-10-25T10:50:21.176Z,9.05
2023-10-25T10:52:51.137Z,8.25
2023-10-25T10:55:23.914Z,7.13
2023-10-25T10:58:07.614Z,7.75
2023-10-25T11:00:37.884Z,7.00
2023-10-25T11:03:09.893Z,7.05
2023-10-25T11:05:39.091Z,6.82
2023-10-25T11:08:12.237Z,7.43
2023-10-25T11:10:40.590Z,7.20
2023-10-25T11:13:11.871Z,6.40
2023-10-25T11:15:40.245Z,6.60
2023-10-25T11:18:10.155Z,6.93
2023-10-25T11:20:39.551Z,7.35
2023-10-25T11:23:07.027Z,7.05
2023-10-25T11:25:35.325Z,5.78
2023-10-25T11:28:05.516Z,6.20
2023-10-25T11:30:35.765Z,5.45
2023-10-25T11:33:04.467Z,6.55
2023-10-25T11:35:33.637Z,5.65
2023-10-25T11:38:01.619Z,5.50
2023-10-25T11:40:40.618Z,6.60
2023-10-25T11:43:08.945Z,4.32
2023-10-25T11:45:40.766Z,5.03
2023-10-25T11:48:09.804Z,4.10
2023-10-25T11:50:37.810Z,5.03
2023-10-25T11:53:05.370Z,4.07
2023-10-25T11:55:33.068Z,4.40
2023-10-25T11:58:02.936Z,3.30
2023-10-25T12:00:30.528Z,3.28
2023-10-25T12:02:57.998Z,6.00
2023-10-25T12:05:26.089Z,3.65
2023-10-25T12:07:54.618Z,3.25
2023-10-25T12:10:23.425Z,4.10
2023-10-25T12:12:50.787Z,4.18
2023-10-25T12:15:18.149Z,4.25
2023-10-25T12:17:46.024Z,4.38
2023-10-25T12:20:26.730Z,5.10
2023-10-25T12:22:57.147Z,4.93
2023-10-25T12:25:25.591Z,5.20
2023-10-25T12:27:53.099Z,4.40
2023-10-25T12:30:20.673Z,4.35
2023-10-25T12:32:48.260Z,4.93
2023-10-25T12:35:15.761Z,4.05
2023-10-25T12:37:43.137Z,4.20
2023-10-25T12:40:10.897Z,3.53
2023-10-25T12:42:38.229Z,3.40
2023-10-25T12:45:06.262Z,3.65
2023-10-25T12:47:33.675Z,3.58
2023-10-25T12:50:01.179Z,4.07
2023-10-25T12:52:28.631Z,3.67
2023-10-25T12:54:55.953Z,3.67
2023-10-25T12:57:23.245Z,4.10
2023-10-25T12:59:50.831Z,4.88
2023-10-25T13:02:19.253Z,5.10
2023-10-25T13:04:47.575Z,5.38
2023-10-25T13:07:15.459Z,6.85
2023-10-25T13:09:42.943Z,5.97
2023-10-25T13:12:10.639Z,6.05
2023-10-25T13:14:38.412Z,6.10
2023-10-25T13:17:19.053Z,6.03
2023-10-25T13:19:48.065Z,7.43
2023-10-25T13:22:15.648Z,6.93
2023-10-25T13:24:44.027Z,6.00
2023-10-25T13:27:11.674Z,6.28
2023-10-25T13:29:39.631Z,5.40
2023-10-25T13:32:08.288Z,4.72
2023-10-25T13:34:36.040Z,4.80
2023-10-25T13:37:04.277Z,5.10
2023-10-25T13:39:31.691Z,5.88
2023-10-25T13:41:59.599Z,4.68
2023-10-25T13:44:27.042Z,6.22
2023-10-25T13:46:55.698Z,4.90
2023-10-25T13:49:23.107Z,4.80
2023-10-25T13:51:51.576Z,4.88
2023-10-25T13:54:19.750Z,4.22
2023-10-25T13:56:47.548Z,3.45
2023-10-25T13:59:15.282Z,3.20
2023-10-25T14:01:42.563Z,3.42
2023-10-25T14:04:16.661Z,2.85
2023-10-25T14:06:44.687Z,2.83
2023-10-25T14:09:12.162Z,3.60
2023-10-25T14:11:39.737Z,3.03
2023-10-25T14:14:07.098Z,3.65
2023-10-25T14:16:34.445Z,2.90
2023-10-25T14:19:01.925Z,2.83
2023-10-25T14:21:31.402Z,2.90
2023-10-25T14:23:58.903Z,2.40
2023-10-25T14:26:26.264Z,3.03
2023-10-25T14:28:53.627Z,2.95
2023-10-25T14:31:21.227Z,2.55
2023-10-25T14:33:48.593Z,3.28
2023-10-25T14:36:16.086Z,2.92
2023-10-25T14:38:43.695Z,2.45
2023-10-25T14:41:11.935Z,3.05
2023-10-25T14:43:40.320Z,3.38
2023-10-25T14:46:20.083Z,2.78
2023-10-25T14:48:48.329Z,2.78
2023-10-25T14:51:29.652Z,2.22
2023-10-25T14:53:57.311Z,1.90
2023-10-25T14:56:24.825Z,2.40
2023-10-25T14:58:57.648Z,2.30
2023-10-25T15:01:27.509Z,2.38
2023-10-25T15:03:55.981Z,1.80
2023-10-25T15:06:29.977Z,2.88
2023-10-25T15:08:58.392Z,2.33
2023-10-25T15:11:25.953Z,2.72
2023-10-25T15:13:53.250Z,2.17
2023-10-25T15:16:20.924Z,2.03
2023-10-25T15:18:49.424Z,2.22
2023-10-25T15:21:18.572Z,2.08
2023-10-25T15:23:47.043Z,2.83
2023-10-25T15:26:14.790Z,2.80
2023-10-25T15:28:42.085Z,2.40
2023-10-25T15:31:09.751Z,2.50
2023-10-25T15:33:37.480Z,2.05
2023-10-25T15:36:05.587Z,2.58
2023-10-25T15:38:35.656Z,2.97
2023-10-25T15:41:23.831Z,2.55
2023-10-25T15:43:52.660Z,3.08
2023-10-25T15:46:29.874Z,2.72
2023-10-25T15:51:26.229Z,3.30
2023-10-25T15:53:54.596Z,2.60
2023-10-25T15:56:22.460Z,2.75
2023-10-25T15:58:49.867Z,3.50
2023-10-25T16:01:31.803Z,3.15
2023-10-25T16:04:01.814Z,3.60
2023-10-25T16:06:29.912Z,2.97
2023-10-25T16:08:57.555Z,3.03
2023-10-25T16:11:25.072Z,3.08
2023-10-25T16:13:52.324Z,3.75
2023-10-25T16:16:19.663Z,2.85
2023-10-25T16:18:47.182Z,3.45
2023-10-25T16:21:14.938Z,3.03
2023-10-25T16:23:42.979Z,3.33
2023-10-25T16:26:11.898Z,3.45
2023-10-25T16:28:43.567Z,3.55
2023-10-25T16:31:12.129Z,3.65
2023-10-25T16:33:39.652Z,4.38
2023-10-25T16:36:10.265Z,4.05
2023-10-25T16:38:37.882Z,4.20
2023-10-25T16:41:07.706Z,4.30
2023-10-25T16:43:36.579Z,4.05
2023-10-25T16:46:08.083Z,4.00
2023-10-25T16:48:37.388Z,4.47
2023-10-25T16:51:16.070Z,4.13
2023-10-25T16:53:45.728Z,4.40
2023-10-25T16:56:14.528Z,4.97
2023-10-25T16:58:42.244Z,4.28
2023-10-25T17:01:11.463Z,5.05
2023-10-25T17:03:39.516Z,5.10
2023-10-25T17:06:09.073Z,4.47
2023-10-25T17:08:36.486Z,4.07
2023-10-25T17:11:04.412Z,3.72
2023-10-25T17:13:33.713Z,3.95
2023-10-25T17:16:02.633Z,4.32
2023-10-25T17:18:35.716Z,3.72
2023-10-25T17:21:09.786Z,8.00
2023-10-25T17:23:38.313Z,7.13
2023-10-25T17:26:06.948Z,6.53
2023-10-25T17:28:34.608Z,5.07
2023-10-25T17:31:02.793Z,7.82
2023-10-25T17:33:30.676Z,6.93
2023-10-25T17:36:01.975Z,8.00
2023-10-25T17:38:30.688Z,9.05
2023-10-25T17:41:00.577Z,11.07
2023-10-25T17:43:27.920Z,11.13
2023-10-25T17:48:28.149Z,9.40
2023-10-25T17:50:56.138Z,9.10
2023-10-25T17:53:23.933Z,8.63
2023-10-25T17:55:51.491Z,8.13
2023-10-25T17:58:19.089Z,8.10
2023-10-25T18:00:48.169Z,7.80
2023-10-25T18:03:15.887Z,8.45
2023-10-25T18:05:44.076Z,7.72
2023-10-25T18:08:13.370Z,6.85
2023-10-25T18:10:41.832Z,6.82
2023-10-25T18:13:09.345Z,8.18
2023-10-25T18:15:38.126Z,6.53
2023-10-25T18:18:06.786Z,6.93
2023-10-25T18:20:35.354Z,7.47
2023-10-25T18:23:14.978Z,8.52
2023-10-25T18:25:42.461Z,8.00
2023-10-25T18:28:09.875Z,9.05
2023-10-25T18:31:56.293Z,9.77
2023-10-25T18:33:27.649Z,10.52
2023-10-25T18:35:55.577Z,11.38
2023-10-25T18:38:22.964Z,9.65
2023-10-25T18:40:57.580Z,9.25
2023-10-25T18:43:26.438Z,9.70
2023-10-25T18:46:02.360Z,9.82
2023-10-25T18:48:30.216Z,9.60
2023-10-25T18:51:04.825Z,10.00
2023-10-25T18:53:32.269Z,9.98
2023-10-25T18:56:04.241Z,9.60
2023-10-25T18:58:36.802Z,11.73
2023-10-25T19:01:18.692Z,11.35
2023-10-25T19:03:50.551Z,9.95
2023-10-25T19:06:25.208Z,10.25
2023-10-25T19:08:59.856Z,11.10
2023-10-25T19:11:28.470Z,10.70
2023-10-25T19:13:55.894Z,12.25
2023-10-25T19:16:24.251Z,11.30
2023-10-25T19:18:51.702Z,11.90
2023-10-25T19:21:18.980Z,11.65
2023-10-25T19:23:50.227Z,10.93
2023-10-25T19:26:17.724Z,10.60
2023-10-25T19:28:45.744Z,10.35
2023-10-25T19:31:13.241Z,10.57
2023-10-25T19:33:41.014Z,10.52
2023-10-25T19:36:14.986Z,10.50
2023-10-25T19:38:42.552Z,11.35
2023-10-25T19:41:09.985Z,10.82
2023-10-25T19:43:39.216Z,11.45
2023-10-25T19:46:06.849Z,11.73
2023-10-25T19:48:34.316Z,13.80
2023-10-25T19:51:01.736Z,13.02
2023-10-25T19:53:29.723Z,14.80
2023-10-25T19:55:57.011Z,18.58
2023-10-25T19:58:26.398Z,16.73
2023-10-25T20:00:57.806Z,25.35
2023-10-25T20:03:25.330Z,49.42
2023-10-25T20:05:52.825Z,14.45
2023-10-25T20:08:22.892Z,13.93
2023-10-25T20:10:59.814Z,12.60
2023-10-25T20:13:27.962Z,12.82
2023-10-25T20:15:56.101Z,13.40
2023-10-25T20:18:24.173Z,12.30
2023-10-25T20:20:51.968Z,13.38
2023-10-25T20:23:19.409Z,12.63
2023-10-25T20:25:53.902Z,12.90
2023-10-25T20:28:21.513Z,13.45
2023-10-25T20:30:50.223Z,13.85
2023-10-25T20:33:18.641Z,13.70
2023-10-25T20:35:46.040Z,16.55
2023-10-25T20:38:14.321Z,15.70
2023-10-25T20:40:41.630Z,17.35
2023-10-25T20:43:11.919Z,17.45
2023-10-25T20:45:48.777Z,14.95
2023-10-25T20:48:16.302Z,15.88
2023-10-25T20:50:43.775Z,16.77
2023-10-25T20:53:11.450Z,14.65
2023-10-25T20:55:43.716Z,15.95
2023-10-25T20:58:11.061Z,15.20
2023-10-25T21:00:41.982Z,15.82
2023-10-25T21:03:10.128Z,14.80
2023-10-25T21:05:37.578Z,13.15
2023-10-25T21:08:05.206Z,13.82
2023-10-25T21:10:32.622Z,15.27
2023-10-25T21:12:59.950Z,14.73
2023-10-25T21:15:27.484Z,14.07
2023-10-25T21:17:55.147Z,13.55
2023-10-25T21:20:22.474Z,13.85
2023-10-25T21:22:49.796Z,14.68
2023-10-25T21:25:17.413Z,13.93
2023-10-25T21:27:44.732Z,16.05
2023-10-25T21:30:12.259Z,14.18
2023-10-25T21:32:39.680Z,15.10
2023-10-25T21:35:07.387Z,16.27
2023-10-25T21:37:34.771Z,14.02
2023-10-25T21:40:02.107Z,16.85
2023-10-25T21:42:29.639Z,16.75
2023-10-25T21:44:57.047Z,15.80
2023-10-25T21:47:24.588Z,16.45
2023-10-25T21:49:52.058Z,17.77
2023-10-25T21:52:19.460Z,18.92
2023-10-25T21:54:46.770Z,17.17
2023-10-25T21:57:14.213Z,19.58
2023-10-25T21:59:49.801Z,18.05
2023-10-25T22:02:27.362Z,16.85
2023-10-25T22:04:56.028Z,18.55
2023-10-25T22:07:23.374Z,16.65
2023-10-25T22:09:51.160Z,17.70
2023-10-25T22:12:18.693Z,19.08
2023-10-25T22:14:47.376Z,19.15
2023-10-25T22:17:14.798Z,21.00
2023-10-25T22:19:42.077Z,18.75
2023-10-25T22:22:09.520Z,18.45
2023-10-25T22:24:36.808Z,19.65
2023-10-25T22:27:04.346Z,20.02
2023-10-25T22:29:31.616Z,20.23
2023-10-25T22:31:58.884Z,20.23
2023-10-25T22:34:26.248Z,20.50
2023-10-25T22:36:53.686Z,21.20
2023-10-25T22:39:22.211Z,21.17
2023-10-25T22:41:55.206Z,20.85
2023-10-25T22:44:22.917Z,21.55
2023-10-25T22:46:50.367Z,19.90
2023-10-25T22:49:17.893Z,21.40
2023-10-25T22:51:45.354Z,21.63
2023-10-25T22:54:13.160Z,20.10
2023-10-25T22:56:40.505Z,21.50
2023-10-25T22:59:07.852Z,19.60
2023-10-25T23:01:35.187Z,19.42
2023-10-25T23:04:02.644Z,18.42
2023-10-25T23:06:33.764Z,17.95
2023-10-25T23:09:02.453Z,17.02
2023-10-25T23:11:30.261Z,15.68
2023-10-25T23:13:57.640Z,14.75
2023-10-25T23:16:25.276Z,18.70
2023-10-25T23:18:53.170Z,14.85
2023-10-25T23:21:20.670Z,15.45
2023-10-25T23:23:47.996Z,15.65
2023-10-25T23:26:15.285Z,14.55
2023-10-25T23:28:42.581Z,14.40
2023-10-25T23:31:11.329Z,16.30
2023-10-25T23:33:39.747Z,13.65
2023-10-25T23:36:08.987Z,15.80
2023-10-25T23:38:36.794Z,14.35
2023-10-25T23:41:04.457Z,14.77
2023-10-25T23:43:32.950Z,18.15
2023-10-25T23:46:00.281Z,14.75
2023-10-25T23:48:27.769Z,14.57
2023-10-25T23:50:55.407Z,15.63
2023-10-25T23:53:23.301Z,15.88
2023-10-25T23:55:50.771Z,15.32
2023-10-25T23:58:18.148Z,15.70
